Time;durP1;ratioP1;P1;durP2;ratioP2;P2;SDS_P1;SDS_P2;PMS_P1;PMS_P2;Temp;Humidity;BMP_temperature;BMP_pressure;BME280_temperature;BME280_humidity;BME280_pressure;Samples;Min_cycle;Max_cycle;Signal;HPM_P1;HPM_P2
2021/03/11 00:02:24;;;;;;;26.30;15.43;;;;;;;6.30;80.33;99159.44;5039991;28;20061;-82
2021/03/11 00:04:51;;;;;;;24.38;16.02;;;;;;;6.36;79.79;99163.69;5029117;28;20054;-84
2021/03/11 00:07:18;;;;;;;34.53;20.02;;;;;;;6.40;80.06;99150.84;5019679;28;20073;-84
2021/03/11 00:09:45;;;;;;;32.60;18.85;;;;;;;6.46;79.11;99144.03;5019723;28;20046;-84
2021/03/11 00:12:12;;;;;;;28.35;16.02;;;;;;;6.52;77.03;99153.00;5020175;28;20061;-83
2021/03/11 00:14:39;;;;;;;22.50;13.75;;;;;;;6.55;76.66;99115.59;5028971;28;20060;-84
2021/03/11 00:17:07;;;;;;;22.70;13.77;;;;;;;6.56;76.61;99150.44;5039042;28;20056;-83
2021/03/11 00:19:34;;;;;;;23.15;12.63;;;;;;;6.57;75.85;99124.38;5039024;28;20140;-83
2021/03/11 00:22:02;;;;;;;24.27;13.88;;;;;;;6.59;75.29;99116.56;5038561;28;20061;-82
2021/03/11 00:24:29;;;;;;;23.95;14.32;;;;;;;6.68;75.54;99122.97;5038696;28;20056;-83
2021/03/11 00:26:56;;;;;;;26.10;15.95;;;;;;;6.78;75.45;99111.56;5040406;28;20068;-84
2021/03/11 00:29:24;;;;;;;25.45;15.90;;;;;;;6.84;74.21;99129.66;5041492;28;20057;-84
2021/03/11 00:31:51;;;;;;;26.13;15.77;;;;;;;6.87;73.97;99126.25;5039596;28;20064;-83
2021/03/11 00:34:19;;;;;;;27.55;15.40;;;;;;;7.00;73.52;99110.66;5038648;28;20057;-83
2021/03/11 00:36:46;;;;;;;20.83;11.82;;;;;;;7.02;72.35;99144.34;5039076;28;20060;-83
2021/03/11 00:39:16;;;;;;;21.10;13.07;;;;;;;7.07;72.17;99118.47;5037745;28;20061;-84
2021/03/11 00:41:43;;;;;;;14.75;8.82;;;;;;;7.12;71.47;99118.31;5038771;28;20063;-84
2021/03/11 00:44:10;;;;;;;20.95;12.75;;;;;;;7.17;71.06;99084.09;5041630;28;20060;-83
2021/03/11 00:46:37;;;;;;;18.70;12.57;;;;;;;7.27;70.13;99092.91;5041735;28;20057;-82
2021/03/11 00:49:07;;;;;;;25.75;14.80;;;;;;;7.26;71.88;99135.56;5042168;28;20053;-83
2021/03/11 00:51:38;;;;;;;20.60;12.60;;;;;;;7.29;70.20;99111.97;5026539;28;20057;-84
2021/03/11 00:54:05;;;;;;;21.15;13.30;;;;;;;7.42;70.47;99118.47;5021728;28;20057;-84
2021/03/11 00:56:32;;;;;;;17.90;11.20;;;;;;;7.36;70.07;99108.69;5020901;28;20050;-84
2021/03/11 00:58:59;;;;;;;25.77;11.77;;;;;;;7.44;70.36;99105.13;5021493;28;20455;-83
2021/03/11 01:01:25;;;;;;;18.38;12.25;;;;;;;7.41;69.89;99078.88;5034497;28;20395;-84
2021/03/11 01:03:52;;;;;;;23.75;13.45;;;;;;;7.49;69.62;99113.25;5040170;28;20053;-83
2021/03/11 01:06:19;;;;;;;18.48;12.65;;;;;;;7.54;70.03;99096.47;5039919;28;20069;-84
2021/03/11 01:08:50;;;;;;;20.02;10.75;;;;;;;7.47;69.53;99065.66;5040619;28;20072;-83
2021/03/11 01:11:17;;;;;;;22.15;14.38;;;;;;;7.53;70.19;99054.06;5038067;28;20513;-84
2021/03/11 01:13:46;;;;;;;19.23;10.75;;;;;;;7.50;69.51;99067.78;5038863;28;20060;-84
2021/03/11 01:16:13;;;;;;;16.83;10.00;;;;;;;7.56;69.55;99071.19;5039064;28;20144;-83
2021/03/11 01:18:40;;;;;;;22.58;14.40;;;;;;;7.59;69.84;99076.88;5039889;28;20053;-84
2021/03/11 01:21:07;;;;;;;18.60;13.43;;;;;;;7.61;69.70;99057.97;5027715;28;20060;-84
2021/03/11 01:23:34;;;;;;;17.20;10.80;;;;;;;7.68;69.05;99069.34;5019289;28;20511;-83
2021/03/11 01:26:07;;;;;;;21.10;13.55;;;;;;;7.73;69.78;99035.94;5018848;28;20408;-84
2021/03/11 01:28:34;;;;;;;22.05;14.40;;;;;;;7.66;69.97;99045.91;5018034;28;20050;-84
2021/03/11 01:31:01;;;;;;;17.40;10.57;;;;;;;7.65;69.47;99036.78;5017693;28;20468;-84
2021/03/11 01:33:28;;;;;;;18.95;11.25;;;;;;;7.61;70.21;99008.09;5018831;28;20518;-84
2021/03/11 01:35:55;;;;;;;20.33;13.50;;;;;;;7.64;69.82;99001.91;5018226;28;20057;-85
2021/03/11 01:38:22;;;;;;;17.42;10.35;;;;;;;7.68;69.74;99000.06;5036670;28;20395;-85
2021/03/11 01:40:49;;;;;;;20.88;13.82;;;;;;;7.73;70.09;99013.78;5040272;28;20053;-85
2021/03/11 01:43:17;;;;;;;17.35;10.85;;;;;;;7.65;69.73;98992.44;5041983;28;20060;-84
2021/03/11 01:45:44;;;;;;;18.45;11.55;;;;;;;7.56;70.65;98988.91;5040263;28;20061;-84
2021/03/11 01:48:11;;;;;;;22.05;13.48;;;;;;;7.65;70.83;98997.97;5042015;28;20079;-83
2021/03/11 01:50:38;;;;;;;18.48;10.80;;;;;;;7.53;70.56;98984.00;5040494;28;20467;-84
2021/03/11 01:53:05;;;;;;;18.38;10.90;;;;;;;7.65;71.03;98977.78;5040338;28;20049;-84
2021/03/11 01:55:33;;;;;;;18.55;12.25;;;;;;;7.62;70.76;98976.50;5040988;28;20045;-84
2021/03/11 01:58:00;;;;;;;18.08;12.82;;;;;;;7.61;70.83;98966.53;5040844;28;20050;-84
2021/03/11 02:00:28;;;;;;;17.73;11.10;;;;;;;7.66;70.41;98969.09;5041912;28;20058;-83
2021/03/11 02:02:56;;;;;;;17.80;12.35;;;;;;;7.69;70.10;98960.16;5043154;28;20049;-83
2021/03/11 02:05:23;;;;;;;18.67;11.90;;;;;;;7.69;70.64;98962.91;5044394;28;20053;-83
2021/03/11 02:07:50;;;;;;;17.35;11.30;;;;;;;7.74;70.41;98948.06;5043913;28;20049;-84
2021/03/11 02:10:22;;;;;;;15.18;9.68;;;;;;;7.80;69.86;98954.25;5043857;28;20056;-83
2021/03/11 02:13:02;;;;;;;18.33;11.07;;;;;;;7.68;70.73;98903.09;5042383;28;20057;-84
2021/03/11 02:15:34;;;;;;;14.73;8.90;;;;;;;7.71;69.70;98913.50;5037379;28;20050;-83
2021/03/11 02:18:06;;;;;;;16.20;11.45;;;;;;;7.65;70.58;98920.38;5024252;28;20049;-83
2021/03/11 02:20:51;;;;;;;14.13;9.02;;;;;;;7.67;70.03;98909.78;5023086;28;20061;-83
2021/03/11 02:23:54;;;;;;;14.40;9.55;;;;;;;7.53;70.47;98925.81;5023918;28;20057;-83
2021/03/11 02:26:32;;;;;;;16.63;11.77;;;;;;;7.63;70.74;98908.81;5019438;28;20054;-83
2021/03/11 02:29:03;;;;;;;16.67;10.65;;;;;;;7.63;71.04;98900.50;5022987;28;20058;-83
2021/03/11 02:31:32;;;;;;;17.10;9.57;;;;;;;7.59;70.70;98877.38;5022053;28;20060;-83
2021/03/11 02:34:01;;;;;;;17.70;11.65;;;;;;;7.58;70.61;98870.25;5041807;28;20414;-83
2021/03/11 02:36:28;;;;;;;15.27;10.73;;;;;;;7.71;71.00;98858.09;5042457;28;20406;-83
2021/03/11 02:38:59;;;;;;;14.55;9.85;;;;;;;7.68;69.89;98836.56;5043296;28;20050;-84
2021/03/11 02:41:26;;;;;;;12.10;7.93;;;;;;;7.71;69.97;98854.50;5042757;28;20061;-83
2021/03/11 03:01:47;;;;;;;;;;;;;;;;;;;;;
2021/03/11 03:43:33;;;;;;;10.60;7.30;;;;;;;8.37;66.27;98734.56;5000955;28;20054;-82
2021/03/11 04:30:50;;;;;;;5.00;3.15;;;;;;;8.22;72.12;98665.88;4978927;28;20070;-81
2021/03/11 05:09:52;;;;;;;5.00;3.40;;;;;;;8.48;72.27;98624.81;4721520;30;20064;-82
2021/03/11 05:12:20;;;;;;;4.53;3.33;;;;;;;8.61;71.58;98620.06;4797953;29;20062;-82
2021/03/11 05:14:49;;;;;;;4.65;2.92;;;;;;;8.57;71.09;98612.75;4915502;28;20056;-81
2021/03/11 05:17:16;;;;;;;4.75;2.67;;;;;;;8.65;70.48;98617.41;5022922;28;20057;-82
2021/03/11 05:19:43;;;;;;;4.80;3.28;;;;;;;8.77;70.37;98611.03;5022767;28;20070;-82
2021/03/11 05:22:10;;;;;;;5.65;2.90;;;;;;;8.83;69.64;98596.56;5023242;28;20066;-82
2021/03/11 05:24:37;;;;;;;4.88;2.88;;;;;;;8.80;69.39;98619.50;5021700;28;20431;-82
2021/03/11 05:27:05;;;;;;;5.25;3.60;;;;;;;8.89;69.75;98603.50;5022883;28;20050;-83
2021/03/11 05:29:33;;;;;;;4.03;2.42;;;;;;;8.82;70.83;98608.00;5023454;28;20058;-81
2021/03/11 05:32:00;;;;;;;4.57;3.50;;;;;;;8.73;72.60;98602.59;5023882;28;20057;-82
2021/03/11 05:34:27;;;;;;;4.95;3.38;;;;;;;8.72;72.58;98582.34;5022300;28;20072;-83
2021/03/11 05:36:54;;;;;;;4.80;3.33;;;;;;;8.43;75.42;98585.38;5022326;28;20050;-83
2021/03/11 05:39:21;;;;;;;7.47;4.93;;;;;;;8.14;77.65;98610.16;5024632;28;20058;-82
2021/03/11 05:41:49;;;;;;;8.65;5.82;;;;;;;7.87;80.40;98608.84;5025483;28;20061;-83
2021/03/11 05:44:16;;;;;;;9.43;6.03;;;;;;;7.61;83.75;98614.63;5024124;28;20076;-84
2021/03/11 05:46:45;;;;;;;13.52;6.20;;;;;;;7.52;85.68;98634.13;5025853;28;20050;-85
2021/03/11 05:49:13;;;;;;;13.85;6.65;;;;;;;7.56;86.85;98645.34;5027690;28;20395;-84
2021/03/11 05:51:40;;;;;;;23.80;7.70;;;;;;;7.48;87.50;98637.91;5026209;28;20058;-84
2021/03/11 05:54:08;;;;;;;17.40;9.10;;;;;;;7.52;88.58;98620.25;5025052;28;20061;-83
2021/03/11 05:56:35;;;;;;;15.55;8.70;;;;;;;7.35;89.05;98634.28;5023347;28;20073;-84
2021/03/11 05:59:02;;;;;;;19.67;8.80;;;;;;;7.35;88.30;98627.91;5024384;28;20046;-85
2021/03/11 06:01:31;;;;;;;18.38;7.95;;;;;;;7.29;89.46;98632.84;5024712;28;20077;-85
2021/03/11 06:04:01;;;;;;;22.73;9.38;;;;;;;7.37;90.36;98597.91;5023818;28;20062;-85
2021/03/11 06:06:31;;;;;;;10.68;6.43;;;;;;;7.21;88.62;98606.03;5022273;28;20054;-84
2021/03/11 06:08:58;;;;;;;15.57;8.18;;;;;;;7.20;89.87;98582.25;5022197;28;20062;-84
2021/03/11 06:11:26;;;;;;;15.13;7.93;;;;;;;7.18;90.80;98595.63;5020586;28;20061;-84
2021/03/11 06:13:54;;;;;;;14.38;6.53;;;;;;;7.25;89.92;98593.13;5021797;28;20088;-84
2021/03/11 06:16:24;;;;;;;14.90;7.53;;;;;;;7.16;89.83;98579.38;5021040;28;20060;-85
2021/03/11 06:18:55;;;;;;;10.27;5.72;;;;;;;7.09;89.46;98612.31;5016537;28;20065;-84
2021/03/11 06:21:24;;;;;;;9.45;5.18;;;;;;;7.16;89.74;98576.59;5021000;28;20057;-84
2021/03/11 06:23:51;;;;;;;10.80;5.22;;;;;;;7.13;88.62;98582.00;5020503;28;20067;-84
2021/03/11 06:26:18;;;;;;;10.43;5.68;;;;;;;7.09;88.72;98590.97;5020700;28;20514;-84
2021/03/11 06:28:54;;;;;;;10.02;5.30;;;;;;;7.20;88.86;98587.78;5022371;28;20057;-84
2021/03/11 06:31:22;;;;;;;9.27;5.25;;;;;;;7.09;88.99;98570.78;5021355;28;20058;-83
2021/03/11 06:33:50;;;;;;;7.97;4.20;;;;;;;7.11;88.16;98579.56;5020998;28;20077;-84
2021/03/11 06:36:17;;;;;;;6.55;4.00;;;;;;;7.24;88.57;98577.66;5021148;28;20058;-83
2021/03/11 06:38:45;;;;;;;8.40;4.75;;;;;;;7.30;88.29;98570.75;5002892;28;20062;-82
2021/03/11 06:41:14;;;;;;;6.28;4.03;;;;;;;7.27;87.47;98586.09;5018544;28;20061;-83
2021/03/11 06:43:56;;;;;;;5.85;4.15;;;;;;;7.39;88.63;98579.00;5021428;28;20403;-83
2021/03/11 06:46:24;;;;;;;6.30;4.05;;;;;;;7.41;87.42;98582.22;5020985;28;20050;-83
2021/03/11 06:49:05;;;;;;;7.70;4.45;;;;;;;7.44;87.81;98565.75;5021767;28;20060;-82
2021/03/11 06:51:33;;;;;;;4.07;2.70;;;;;;;7.37;86.36;98607.03;5020687;28;20049;-83
2021/03/11 06:54:01;;;;;;;5.03;2.78;;;;;;;7.40;86.05;98586.16;5019380;28;20057;-82
2021/03/11 06:56:30;;;;;;;6.60;4.55;;;;;;;7.51;87.13;98556.88;5020183;28;20062;-81
2021/03/11 06:58:58;;;;;;;7.35;4.00;;;;;;;7.58;86.05;98564.63;5020438;28;20057;-83
2021/03/11 07:01:26;;;;;;;6.13;4.25;;;;;;;7.66;84.90;98577.59;5022016;28;20057;-82
2021/03/11 07:03:54;;;;;;;6.35;4.18;;;;;;;7.81;83.47;98554.78;5019144;28;20053;-82
2021/03/11 07:06:29;;;;;;;5.65;3.85;;;;;;;7.89;82.94;98553.84;5020428;28;20053;-81
2021/03/11 07:08:57;;;;;;;5.25;3.28;;;;;;;7.98;81.73;98558.50;5006881;28;20054;-81
2021/03/11 07:11:25;;;;;;;5.45;3.33;;;;;;;8.09;80.87;98545.81;5002176;28;20405;-82
2021/03/11 07:17:23;;;;;;;4.90;2.47;;;;;;;8.26;79.72;98512.31;5005749;28;20053;-81
2021/03/11 07:20:11;;;;;;;5.30;3.72;;;;;;;8.29;79.98;98521.88;4570345;28;21812;-79
2021/03/11 07:22:38;;;;;;;5.50;3.25;;;;;;;8.30;79.79;98510.44;3782456;28;21750;-79
2021/03/11 07:25:25;;;;;;;3.80;2.80;;;;;;;8.42;78.21;98509.69;3837065;28;21715;-79
2021/03/11 07:27:54;;;;;;;4.35;2.90;;;;;;;8.49;78.72;98506.31;3822021;28;22511;-79
2021/03/11 07:30:22;;;;;;;4.65;3.20;;;;;;;8.55;78.63;98496.59;4994443;28;20392;-78
2021/03/11 07:32:49;;;;;;;3.72;2.50;;;;;;;8.60;77.76;98517.75;4990893;28;20054;-84
2021/03/11 07:35:21;;;;;;;6.03;3.75;;;;;;;8.71;77.82;98496.66;4999009;28;20070;-82
2021/03/11 07:37:51;;;;;;;3.13;2.55;;;;;;;8.81;76.48;98501.72;4998626;28;20058;-80
2021/03/11 07:40:18;;;;;;;3.72;2.28;;;;;;;8.86;76.91;98501.50;4987819;28;20062;-81
2021/03/11 07:42:45;;;;;;;4.07;3.20;;;;;;;8.97;77.17;98489.91;4979640;28;20062;-80
2021/03/11 07:45:14;;;;;;;4.70;3.08;;;;;;;9.10;76.76;98455.34;4980363;28;20062;-81
2021/03/11 07:47:41;;;;;;;4.10;2.47;;;;;;;9.18;76.82;98512.72;4988682;28;20513;-82
2021/03/11 07:50:11;;;;;;;4.95;3.60;;;;;;;9.22;78.06;98469.19;4996910;28;20065;-82
2021/03/11 07:52:39;;;;;;;3.80;2.85;;;;;;;9.17;77.59;98469.44;4996852;28;20074;-80
2021/03/11 07:55:07;;;;;;;4.00;2.38;;;;;;;9.11;78.18;98468.06;4983304;28;20054;-80
2021/03/11 07:57:40;;;;;;;3.83;3.03;;;;;;;9.09;78.45;98475.94;4985197;28;20499;-80
2021/03/11 08:00:09;;;;;;;4.57;3.55;;;;;;;9.08;78.35;98479.91;4995685;28;20089;-80
2021/03/11 08:02:42;;;;;;;3.70;2.78;;;;;;;9.14;77.97;98470.94;4996364;28;20054;-80
2021/03/11 08:05:10;;;;;;;3.15;2.30;;;;;;;9.15;77.08;98480.09;4994288;28;20058;-80
2021/03/11 08:07:38;;;;;;;2.75;2.20;;;;;;;10.06;74.74;98470.97;4993393;28;20065;-80
2021/03/11 08:10:20;;;;;;;3.50;2.60;;;;;;;12.24;68.81;98448.66;5010456;28;20050;-79
2021/03/11 08:12:47;;;;;;;3.58;2.45;;;;;;;13.73;61.91;98439.72;4991029;28;20062;-80
2021/03/11 08:15:32;;;;;;;2.67;1.73;;;;;;;13.63;60.57;98436.81;5006274;28;20050;-79
2021/03/11 08:18:02;;;;;;;3.50;2.10;;;;;;;14.41;57.72;98431.84;4997620;28;20046;-82
2021/03/11 08:20:38;;;;;;;;;;;;;;;14.22;55.97;98437.72;5016160;28;20061;-80
2021/03/11 08:23:10;;;;;;;2.28;1.67;;;;;;;15.26;54.32;98441.06;4993749;28;19940;-79
2021/03/11 08:25:55;;;;;;;2.50;2.00;;;;;;;15.80;52.68;98415.97;4995301;28;20066;-80
2021/03/11 08:28:38;;;;;;;3.50;1.83;;;;;;;14.98;54.93;98420.16;4994669;28;20391;-80
2021/03/11 08:31:07;;;;;;;2.75;2.00;;;;;;;13.50;59.11;98422.28;4976817;28;20067;-80
2021/03/11 08:33:46;;;;;;;2.70;1.73;;;;;;;12.77;61.44;98436.63;4975062;28;20063;-80
2021/03/11 08:36:40;;;;;;;3.20;2.07;;;;;;;11.88;65.42;98413.75;4977307;28;20489;-80
2021/03/11 08:39:36;;;;;;;2.65;1.83;;;;;;;11.53;65.05;98409.19;4975957;28;20066;-81
2021/03/11 08:42:49;;;;;;;2.88;1.92;;;;;;;11.49;65.75;98384.03;4964993;28;20058;-80
2021/03/11 08:46:01;;;;;;;3.85;2.00;;;;;;;11.18;66.62;98407.34;4983220;28;20059;-80
2021/03/11 08:48:39;;;;;;;5.60;2.00;;;;;;;11.01;68.29;98405.03;4975048;28;20054;-80
2021/03/11 08:51:10;;;;;;;2.90;2.13;;;;;;;10.98;69.07;98378.72;4989860;28;20055;-79
2021/03/11 08:53:45;;;;;;;2.70;1.90;;;;;;;11.02;68.52;98378.78;4979221;28;20055;-79
2021/03/11 08:56:40;;;;;;;3.95;2.33;;;;;;;10.94;69.76;98378.66;4979929;28;20382;-80
2021/03/11 08:59:10;;;;;;;3.25;1.75;;;;;;;10.99;68.22;98396.25;4940484;28;20058;-82
2021/03/11 09:01:39;;;;;;;4.35;2.50;;;;;;;10.96;69.63;98381.88;4982717;28;20066;-80
2021/03/11 09:04:29;;;;;;;3.05;2.00;;;;;;;10.90;69.88;98388.94;4983555;28;20068;-81
2021/03/11 09:06:58;;;;;;;2.67;1.83;;;;;;;10.93;69.86;98363.09;4979372;28;20070;-78
2021/03/11 09:09:32;;;;;;;3.13;2.08;;;;;;;10.91;70.29;98368.25;4989974;28;20047;-80
2021/03/11 09:12:00;;;;;;;6.78;2.50;;;;;;;10.97;71.10;98382.69;4976416;28;20071;-80
2021/03/11 09:14:28;;;;;;;4.57;2.08;;;;;;;11.06;70.04;98452.91;4976736;28;20055;-79
2021/03/11 09:17:04;;;;;;;3.80;2.28;;;;;;;10.99;70.40;98393.47;4980116;28;20055;-78
2021/03/11 09:19:43;;;;;;;5.32;2.70;;;;;;;10.84;72.12;98398.75;4980304;28;20492;-79
2021/03/11 09:22:22;;;;;;;3.67;1.60;;;;;;;10.65;75.91;98388.41;4981030;28;20066;-78
2021/03/11 09:25:13;;;;;;;3.23;1.70;;;;;;;10.63;78.38;98396.34;4985204;28;20063;-80
2021/03/11 09:27:51;;;;;;;6.38;2.63;;;;;;;10.75;76.89;98387.84;4964676;29;20827;-79
2021/03/11 09:30:19;;;;;;;6.25;2.50;;;;;;;10.60;75.66;98391.47;4981122;28;20058;-80
2021/03/11 09:32:46;;;;;;;7.25;2.00;;;;;;;10.42;75.28;98402.25;4981249;28;20059;-82
2021/03/11 09:35:15;;;;;;;5.57;3.03;;;;;;;10.35;77.57;98389.00;4979784;28;20413;-81
2021/03/11 09:37:48;;;;;;;6.77;2.47;;;;;;;10.25;78.07;98388.72;4980026;28;20070;-80
2021/03/11 09:40:21;;;;;;;7.07;2.90;;;;;;;10.02;79.58;98422.78;4978767;28;20490;-80
2021/03/11 09:43:10;;;;;;;7.20;1.80;;;;;;;9.77;79.38;98426.94;4974349;28;20059;-80
2021/03/11 09:45:42;;;;;;;7.05;2.90;;;;;;;9.72;80.64;98401.03;4978130;28;20071;-81
2021/03/11 09:48:12;;;;;;;6.82;2.72;;;;;;;9.78;80.75;98432.13;4977806;28;20066;-81
2021/03/11 09:50:41;;;;;;;5.72;2.15;;;;;;;9.77;80.14;98421.38;4985283;28;20061;-80
2021/03/11 09:53:09;;;;;;;10.55;2.95;;;;;;;9.79;79.54;98410.69;4979180;28;20074;-80
2021/03/11 09:55:36;;;;;;;8.75;2.15;;;;;;;9.79;79.67;98410.69;4975595;28;20055;-81
2021/03/11 09:58:03;;;;;;;14.43;3.33;;;;;;;9.83;80.00;98409.63;4980547;28;20077;-78
2021/03/11 10:00:30;;;;;;;13.63;3.10;;;;;;;9.81;79.64;98422.28;4975522;28;20051;-79
2021/03/11 10:02:57;;;;;;;6.60;2.30;;;;;;;9.84;76.09;98404.84;4976138;28;20519;-80
2021/03/11 10:05:32;;;;;;;6.05;2.25;;;;;;;9.90;76.33;98401.44;4982762;28;20051;-78
2021/03/11 10:07:59;;;;;;;10.27;2.70;;;;;;;9.94;75.48;98343.94;4981970;28;20070;-80
2021/03/11 10:10:29;;;;;;;12.05;2.70;;;;;;;9.94;74.79;98346.72;4976758;28;20413;-81
2021/03/11 10:12:56;;;;;;;10.43;2.35;;;;;;;10.11;74.75;98370.53;4979302;28;20555;-81
2021/03/11 10:15:23;;;;;;;7.70;2.08;;;;;;;10.43;73.38;98336.25;4975498;28;20055;-78
2021/03/11 10:18:08;;;;;;;5.70;1.20;;;;;;;12.15;64.65;98331.69;4976003;28;21271;-81
2021/03/11 10:20:36;;;;;;;12.13;2.13;;;;;;;12.72;61.58;98328.81;4976687;28;20046;-77
2021/03/11 10:23:16;;;;;;;10.60;2.80;;;;;;;15.23;57.46;98321.28;4975566;28;20412;-78
2021/03/11 10:25:44;;;;;;;9.88;3.38;;;;;;;18.65;45.94;98298.56;4976198;28;20061;-77
2021/03/11 10:28:12;;;;;;;7.90;2.95;;;;;;;20.08;39.33;98281.44;4981457;28;20077;-79
2021/03/11 10:30:40;;;;;;;6.18;4.07;;;;;;;20.80;38.41;98291.34;5007600;28;20081;-79
2021/03/11 10:33:07;;;;;;;8.23;2.80;;;;;;;21.61;36.24;98309.75;5001635;28;20058;-80
2021/03/11 10:35:36;;;;;;;5.97;3.00;;;;;;;22.17;34.61;98289.63;5001992;28;20058;-81
2021/03/11 10:38:15;;;;;;;9.40;4.75;;;;;;;23.88;32.23;98288.56;4999154;28;20059;-81
2021/03/11 10:40:42;;;;;;;9.68;3.75;;;;;;;23.83;30.94;98296.88;5005194;28;20055;-80
2021/03/11 10:43:17;;;;;;;8.98;3.17;;;;;;;24.99;30.54;98285.78;4998440;28;20389;-79
2021/03/11 10:45:45;;;;;;;10.75;3.65;;;;;;;25.51;29.53;98284.97;4995901;28;20069;-79
2021/03/11 10:48:12;;;;;;;9.98;3.40;;;;;;;25.01;28.94;98323.97;4996612;28;20062;-81
2021/03/11 10:50:41;;;;;;;14.00;3.83;;;;;;;25.33;29.81;98296.28;5012039;28;20063;-79
2021/03/11 10:53:09;;;;;;;9.50;2.35;;;;;;;23.83;30.78;98320.44;4997253;28;20058;-80
2021/03/11 10:55:37;;;;;;;9.10;3.35;;;;;;;25.47;27.80;98318.53;5001197;28;20403;-78
2021/03/11 10:58:06;;;;;;;10.73;2.90;;;;;;;25.62;27.13;98315.06;4990148;28;20062;-79
2021/03/11 11:00:35;;;;;;;8.27;3.23;;;;;;;25.72;26.42;98313.84;5015183;28;20061;-79
2021/03/11 11:03:03;;;;;;;;;;;;;;;26.77;24.46;98295.88;4999246;28;20515;-77
2021/03/11 11:05:31;;;;;;;6.95;2.80;;;;;;;26.36;25.24;98310.34;5015065;28;19929;-78
2021/03/11 11:07:59;;;;;;;10.55;3.03;;;;;;;26.38;24.62;98324.91;4994786;28;20076;-78
2021/03/11 11:10:30;;;;;;;6.80;2.92;;;;;;;28.08;23.60;98298.59;4991514;28;20058;-79
2021/03/11 11:12:57;;;;;;;8.73;3.13;;;;;;;29.53;21.81;98298.97;4991224;28;20503;-79
2021/03/11 11:15:26;;;;;;;8.48;2.95;;;;;;;29.81;21.04;98290.00;4995549;28;20069;-79
2021/03/11 11:17:54;;;;;;;5.28;2.38;;;;;;;29.76;19.93;98305.84;4993956;28;20069;-81
2021/03/11 11:20:22;;;;;;;9.23;2.83;;;;;;;29.02;21.20;98295.22;4995681;28;20407;-80
2021/03/11 11:22:49;;;;;;;7.78;2.75;;;;;;;26.53;23.19;98339.34;4993522;28;20065;-80
2021/03/11 11:25:15;;;;;;;7.20;2.20;;;;;;;27.49;22.77;98254.09;4999025;28;20491;-81
2021/03/11 11:27:43;;;;;;;4.05;1.60;;;;;;;24.03;25.96;98310.81;5000126;28;20058;-81
2021/03/11 11:30:13;;;;;;;5.20;1.88;;;;;;;21.64;29.28;98315.31;5012378;28;20545;-80
2021/03/11 11:32:40;;;;;;;8.23;1.95;;;;;;;19.66;33.16;98292.25;5002543;28;20435;-82
2021/03/11 11:35:09;;;;;;;7.30;2.15;;;;;;;19.10;34.43;98325.78;4995572;28;20050;-81
2021/03/11 11:37:36;;;;;;;7.10;2.08;;;;;;;18.31;36.85;98369.84;4996125;28;20058;-79
2021/03/11 11:40:03;;;;;;;6.05;1.88;;;;;;;18.42;36.49;98322.59;4998209;28;20495;-78
2021/03/11 11:42:30;;;;;;;6.53;1.88;;;;;;;17.81;37.79;98314.72;4995462;28;20050;-76
2021/03/11 11:44:57;;;;;;;6.20;1.63;;;;;;;16.89;38.21;98335.91;4995004;28;20073;-78
2021/03/11 11:47:24;;;;;;;8.85;3.17;;;;;;;18.69;35.50;98318.22;4992663;28;20054;-78
2021/03/11 11:49:51;;;;;;;7.30;1.90;;;;;;;17.90;35.80;98358.53;4993443;28;20057;-78
2021/03/11 11:52:18;;;;;;;6.95;2.03;;;;;;;17.74;35.46;98316.81;4995157;28;20361;-78
2021/03/11 11:54:46;;;;;;;8.80;2.15;;;;;;;18.27;34.15;98309.88;4994798;28;20365;-78
2021/03/11 11:57:12;;;;;;;7.45;2.08;;;;;;;19.33;32.75;98350.47;4994563;28;20054;-78
2021/03/11 11:59:40;;;;;;;7.35;2.13;;;;;;;18.62;32.60;98330.41;4994015;28;20054;-78
2021/03/11 12:02:07;;;;;;;8.90;1.83;;;;;;;17.79;34.27;98322.78;4990764;28;20492;-76
2021/03/11 12:04:34;;;;;;;8.77;2.45;;;;;;;17.44;34.07;98312.63;4991438;28;20050;-78
2021/03/11 12:07:02;;;;;;;10.35;2.85;;;;;;;17.73;33.82;98318.81;4995211;28;20062;-77
2021/03/11 12:09:30;;;;;;;10.60;2.50;;;;;;;17.60;33.92;98329.00;4995847;28;20424;-78
2021/03/11 12:11:56;;;;;;;8.43;2.33;;;;;;;17.42;34.66;98334.75;4992010;28;20050;-78
2021/03/11 12:14:23;;;;;;;7.45;2.00;;;;;;;16.79;35.43;98329.88;4996423;28;20061;-81
2021/03/11 12:16:50;;;;;;;7.07;2.10;;;;;;;17.09;35.71;98350.25;4998167;28;20062;-83
2021/03/11 12:19:17;;;;;;;10.32;3.28;;;;;;;21.18;27.96;98314.34;4996752;28;20070;-78
2021/03/11 12:21:45;;;;;;;8.68;2.22;;;;;;;20.53;29.12;98303.56;4993912;28;20058;-77
2021/03/11 12:24:12;;;;;;;12.30;2.83;;;;;;;21.56;27.06;98339.38;4994326;28;20420;-79
2021/03/11 12:26:40;;;;;;;10.80;2.97;;;;;;;21.01;28.08;98322.00;4996282;28;20065;-79
2021/03/11 12:29:07;;;;;;;7.53;2.42;;;;;;;19.70;30.18;98307.16;4986125;28;20055;-76
2021/03/11 12:31:34;;;;;;;13.98;3.78;;;;;;;19.14;31.20;98303.97;4971959;28;20059;-78
2021/03/11 12:34:01;;;;;;;8.45;2.92;;;;;;;18.81;32.31;98317.72;4979655;28;20512;-79
2021/03/11 12:36:28;;;;;;;9.32;2.72;;;;;;;19.99;29.75;98324.41;4979085;28;20062;-78
2021/03/11 12:38:56;;;;;;;9.40;2.30;;;;;;;18.93;31.23;98316.34;4991889;28;20050;-77
2021/03/11 12:41:25;;;;;;;6.38;1.85;;;;;;;18.21;32.56;98334.09;4974863;28;20047;-77
2021/03/11 12:43:52;;;;;;;11.05;3.10;;;;;;;18.09;33.48;98317.72;4977399;28;20523;-77
2021/03/11 12:46:20;;;;;;;8.48;2.78;;;;;;;19.10;31.52;98328.63;4977530;28;20055;-76
2021/03/11 12:48:46;;;;;;;8.68;3.00;;;;;;;18.64;32.36;98305.41;4979771;28;20062;-76
2021/03/11 12:51:14;;;;;;;12.50;2.85;;;;;;;17.70;33.94;98302.78;4977659;28;20061;-76
2021/03/11 12:53:40;;;;;;;11.77;3.20;;;;;;;17.15;34.41;98326.88;4979111;28;20063;-76
2021/03/11 12:56:07;;;;;;;8.40;2.95;;;;;;;20.75;28.08;98329.44;4978775;28;20389;-77
2021/03/11 12:58:34;;;;;;;7.13;2.20;;;;;;;20.31;28.26;98305.25;4977060;28;20042;-77
2021/03/11 13:01:03;;;;;;;8.88;2.70;;;;;;;18.51;31.44;98324.09;4985221;28;20055;-77
2021/03/11 13:03:32;;;;;;;10.88;2.67;;;;;;;18.92;30.83;98343.78;4974166;28;20061;-76
2021/03/11 13:05:59;;;;;;;10.20;2.58;;;;;;;20.19;29.55;98321.59;4979821;28;20062;-77
2021/03/11 13:08:26;;;;;;;9.25;3.00;;;;;;;22.61;25.42;98321.28;4974010;28;20074;-77
2021/03/11 13:10:54;;;;;;;9.38;3.10;;;;;;;23.37;24.53;98310.53;4976343;28;20061;-78
2021/03/11 13:13:21;;;;;;;9.98;3.30;;;;;;;23.81;23.69;98344.84;4974493;28;20067;-76
2021/03/11 13:15:48;;;;;;;9.43;3.30;;;;;;;23.81;23.74;98317.25;4974992;28;20424;-77
2021/03/11 13:18:15;;;;;;;12.45;3.28;;;;;;;24.25;23.31;98313.69;4975119;28;20054;-77
2021/03/11 13:20:42;;;;;;;7.20;2.33;;;;;;;23.96;23.61;98311.88;4975310;28;20395;-77
2021/03/11 13:23:09;;;;;;;10.68;2.50;;;;;;;23.70;24.26;98317.53;4973249;28;20405;-77
2021/03/11 13:25:39;;;;;;;8.30;3.05;;;;;;;23.76;23.21;98332.03;4972985;28;20058;-77
2021/03/11 13:28:06;;;;;;;6.70;2.80;;;;;;;24.10;23.21;98316.25;4978243;28;20069;-78
2021/03/11 13:30:33;;;;;;;6.18;2.50;;;;;;;24.09;23.16;98317.53;4978169;28;20066;-77
2021/03/11 13:33:00;;;;;;;8.65;3.38;;;;;;;24.44;22.67;98309.78;4971594;28;20088;-79
2021/03/11 13:35:28;;;;;;;8.70;2.92;;;;;;;23.79;23.37;98325.44;4976883;28;20046;-79
2021/03/11 13:37:55;;;;;;;8.68;2.15;;;;;;;23.08;23.34;98340.63;4976562;28;20063;-79
2021/03/11 13:40:22;;;;;;;7.68;2.60;;;;;;;22.07;24.43;98368.09;4979434;28;20055;-79
2021/03/11 13:42:49;;;;;;;7.80;2.03;;;;;;;21.36;25.22;98321.66;4977008;28;20042;-79
2021/03/11 13:45:17;;;;;;;5.75;1.73;;;;;;;21.03;25.77;98327.22;4979030;28;20061;-79
2021/03/11 13:47:43;;;;;;;5.93;2.38;;;;;;;20.47;27.37;98319.47;4978896;28;20085;-77
2021/03/11 13:50:12;;;;;;;6.38;2.13;;;;;;;20.13;27.45;98340.28;4972735;28;20062;-77
2021/03/11 13:52:40;;;;;;;7.72;2.55;;;;;;;19.91;28.29;98334.22;4958465;28;20055;-77
2021/03/11 13:55:09;;;;;;;9.48;1.77;;;;;;;19.61;27.74;98350.03;4963839;28;20055;-76
2021/03/11 13:57:36;;;;;;;8.68;2.58;;;;;;;19.15;29.34;98342.25;4959646;28;20440;-77
2021/03/11 14:00:05;;;;;;;7.85;2.15;;;;;;;18.63;30.34;98344.09;4976244;28;20058;-77
2021/03/11 14:02:32;;;;;;;8.23;2.72;;;;;;;18.12;31.32;98359.97;4977703;28;20066;-77
2021/03/11 14:04:59;;;;;;;11.13;2.97;;;;;;;17.70;33.09;98375.97;4967583;28;20069;-77
2021/03/11 14:07:25;;;;;;;11.85;2.78;;;;;;;17.79;37.81;98384.75;4957713;29;20088;-77
2021/03/11 14:09:53;;;;;;;7.72;1.75;;;;;;;18.14;35.71;98373.59;4970047;28;20416;-77